Time;durP1;ratioP1;P1;durP2;ratioP2;P2;SDS_P1;SDS_P2;PMS_P1;PMS_P2;Temp;Humidity;BMP_temperature;BMP_pressure;BME280_temperature;BME280_humidity;BME280_pressure;Samples;Min_cycle;Max_cycle;Signal;HPM_P1;HPM_P2
2022/03/06 00:00:21;;;;;;;31.40;10.00;;;1.90;99.90;;;;;;4918521;29;20210;-72
2022/03/06 00:02:48;;;;;;;27.33;9.93;;;1.90;99.90;;;;;;4918776;29;20221;-73
2022/03/06 00:05:16;;;;;;;21.63;10.10;;;1.90;99.90;;;;;;4918851;29;20225;-72
2022/03/06 00:07:43;;;;;;;24.80;9.57;;;1.90;99.90;;;;;;4918506;29;20218;-73
2022/03/06 00:10:11;;;;;;;29.03;11.00;;;1.70;99.90;;;;;;4918157;29;20237;-73
2022/03/06 00:12:37;;;;;;;26.67;9.43;;;1.60;99.90;;;;;;4918739;29;20216;-72
2022/03/06 00:15:05;;;;;;;21.47;8.80;;;1.60;99.90;;;;;;4924848;29;20229;-73
2022/03/06 00:17:32;;;;;;;22.77;10.10;;;1.70;99.90;;;;;;4937574;29;20232;-74
2022/03/06 00:20:00;;;;;;;25.90;10.50;;;1.60;99.90;;;;;;4937672;29;20668;-72
2022/03/06 00:22:28;;;;;;;25.60;10.07;;;1.70;99.90;;;;;;4936049;29;20201;-72
2022/03/06 00:24:57;;;;;;;22.07;9.10;;;1.60;99.90;;;;;;4933681;29;20221;-73
2022/03/06 00:27:24;;;;;;;22.80;9.90;;;1.50;99.90;;;;;;4921570;29;20728;-77
2022/03/06 00:29:51;;;;;;;26.83;9.93;;;1.50;99.90;;;;;;4927094;29;20205;-73
2022/03/06 00:32:18;;;;;;;28.20;10.67;;;1.50;99.90;;;;;;4936958;29;20220;-73
2022/03/06 00:34:46;;;;;;;27.50;10.00;;;1.50;99.90;;;;;;4937112;29;20228;-73
2022/03/06 00:37:13;;;;;;;24.87;9.80;;;1.40;99.90;;;;;;4937139;29;20683;-75
2022/03/06 00:39:41;;;;;;;29.00;11.00;;;1.30;99.90;;;;;;4937169;29;20660;-72
2022/03/06 00:42:08;;;;;;;30.57;10.90;;;1.40;99.90;;;;;;4937151;29;20215;-73
2022/03/06 00:44:35;;;;;;;33.13;11.77;;;1.40;99.90;;;;;;4937127;29;20232;-73
2022/03/06 00:47:02;;;;;;;26.77;10.43;;;1.40;99.90;;;;;;4937278;29;20217;-75
2022/03/06 00:49:29;;;;;;;18.00;8.47;;;1.30;99.90;;;;;;4937002;29;20216;-74
2022/03/06 00:51:56;;;;;;;27.73;9.93;;;1.30;99.90;;;;;;4937261;29;20209;-72
2022/03/06 00:54:22;;;;;;;28.57;11.30;;;1.30;99.90;;;;;;4936878;29;20320;-72
2022/03/06 00:56:51;;;;;;;25.73;10.27;;;1.30;99.90;;;;;;4936523;29;20205;-72
2022/03/06 00:59:18;;;;;;;31.33;11.23;;;1.40;99.90;;;;;;4936448;29;20288;-74
2022/03/06 01:01:45;;;;;;;28.53;9.57;;;1.30;99.90;;;;;;4936857;29;20208;-72
2022/03/06 01:04:11;;;;;;;26.23;10.33;;;1.40;99.90;;;;;;4936544;29;20228;-72
2022/03/06 01:06:38;;;;;;;24.73;10.67;;;1.40;99.90;;;;;;4936965;29;20572;-75
2022/03/06 01:09:06;;;;;;;26.33;9.80;;;1.40;99.90;;;;;;4936367;29;20205;-73
2022/03/06 01:11:35;;;;;;;26.27;10.23;;;1.30;99.90;;;;;;4936799;29;20215;-74
2022/03/06 01:14:03;;;;;;;30.23;10.73;;;1.20;99.90;;;;;;4919673;29;20229;-73
2022/03/06 01:16:30;;;;;;;26.87;9.50;;;1.10;99.90;;;;;;4917092;29;20221;-77
2022/03/06 01:18:57;;;;;;;25.60;10.30;;;1.10;99.90;;;;;;4916829;29;20237;-73
2022/03/06 01:21:23;;;;;;;22.70;9.67;;;1.10;99.90;;;;;;4917191;29;20227;-74
2022/03/06 01:23:50;;;;;;;25.77;10.00;;;1.10;99.90;;;;;;4917685;29;20233;-75
2022/03/06 01:26:17;;;;;;;25.97;9.67;;;1.10;99.90;;;;;;4917627;29;20596;-74
2022/03/06 01:28:45;;;;;;;29.63;10.97;;;1.10;99.90;;;;;;4917445;29;20209;-73
2022/03/06 01:31:13;;;;;;;26.23;10.83;;;1.10;99.90;;;;;;4917307;29;20214;-73
2022/03/06 01:33:40;;;;;;;26.00;10.53;;;1.10;99.90;;;;;;4916961;29;20735;-74
2022/03/06 01:36:07;;;;;;;30.53;10.03;;;1.10;99.90;;;;;;4917272;29;20213;-73
2022/03/06 01:38:34;;;;;;;23.93;10.67;;;1.10;99.90;;;;;;4917372;29;20237;-74
2022/03/06 01:41:00;;;;;;;24.43;10.27;;;1.00;99.90;;;;;;4917422;29;20220;-73
2022/03/06 01:43:27;;;;;;;23.97;10.43;;;1.10;99.90;;;;;;4917510;29;20213;-74
2022/03/06 01:45:54;;;;;;;26.73;10.40;;;1.10;99.90;;;;;;4917199;29;20205;-73
2022/03/06 01:48:22;;;;;;;21.77;9.17;;;1.00;99.90;;;;;;4917149;29;20217;-74
2022/03/06 01:50:49;;;;;;;26.87;9.93;;;1.00;99.90;;;;;;4916943;29;20214;-73
2022/03/06 01:53:16;;;;;;;25.83;10.53;;;1.00;99.90;;;;;;4916982;29;20206;-75
2022/03/06 01:55:43;;;;;;;24.80;10.13;;;1.00;99.90;;;;;;4916857;29;20217;-73
2022/03/06 01:58:13;;;;;;;25.23;11.40;;;1.00;99.90;;;;;;4916782;29;20241;-73
2022/03/06 02:00:44;;;;;;;23.17;10.47;;;1.00;99.90;;;;;;4916450;29;20289;-74
2022/03/06 02:03:11;;;;;;;33.40;11.13;;;1.00;99.90;;;;;;4916707;29;20237;-72
2022/03/06 02:05:39;;;;;;;20.83;10.00;;;1.00;99.90;;;;;;4917210;29;20236;-73
2022/03/06 02:08:06;;;;;;;24.67;10.17;;;1.00;99.90;;;;;;4916845;29;20209;-72
2022/03/06 02:10:34;;;;;;;23.60;9.90;;;1.00;99.90;;;;;;4916913;29;20205;-73
2022/03/06 02:13:00;;;;;;;26.90;10.67;;;1.00;99.90;;;;;;4917147;29;20213;-72
2022/03/06 02:15:28;;;;;;;25.43;9.20;;;1.00;99.90;;;;;;4916787;29;20233;-73
2022/03/06 02:17:54;;;;;;;24.07;9.50;;;0.90;99.90;;;;;;4916439;29;20213;-74
2022/03/06 02:20:23;;;;;;;27.37;9.53;;;0.80;99.90;;;;;;4916676;29;20224;-73
2022/03/06 02:22:53;;;;;;;25.27;10.20;;;0.90;99.90;;;;;;4916614;29;20308;-75
2022/03/06 02:25:22;;;;;;;28.70;11.07;;;0.90;99.90;;;;;;4916512;29;20588;-73
2022/03/06 02:27:50;;;;;;;23.77;9.77;;;1.00;99.90;;;;;;4916968;29;20213;-74
2022/03/06 02:30:18;;;;;;;24.37;10.37;;;0.90;99.90;;;;;;4916803;29;20209;-76
2022/03/06 02:32:46;;;;;;;23.30;8.63;;;0.80;99.90;;;;;;4916648;29;20206;-74
2022/03/06 02:35:13;;;;;;;20.80;8.80;;;0.80;99.90;;;;;;4916419;29;20232;-73
2022/03/06 02:37:40;;;;;;;20.73;8.33;;;0.80;99.90;;;;;;4916749;29;20210;-75
2022/03/06 02:40:10;;;;;;;23.90;10.17;;;0.70;99.90;;;;;;4916641;29;20637;-74
2022/03/06 02:42:39;;;;;;;25.63;9.87;;;0.60;99.90;;;;;;4916666;29;20213;-73
2022/03/06 02:45:09;;;;;;;27.53;9.50;;;0.60;99.90;;;;;;4916372;29;20237;-73
2022/03/06 02:47:36;;;;;;;21.80;10.07;;;0.80;99.90;;;;;;4916726;29;20210;-78
2022/03/06 02:50:05;;;;;;;25.33;10.20;;;0.80;99.90;;;;;;4916354;29;20304;-75
2022/03/06 02:52:32;;;;;;;25.00;9.77;;;0.80;99.90;;;;;;4916741;29;20209;-73
2022/03/06 02:54:58;;;;;;;21.40;10.03;;;0.70;99.90;;;;;;4916496;29;20229;-76
2022/03/06 02:57:27;;;;;;;22.00;9.53;;;0.70;99.90;;;;;;4916170;29;20206;-74
2022/03/06 02:59:53;;;;;;;27.30;9.20;;;0.60;99.90;;;;;;4916229;29;20237;-74
2022/03/06 03:02:20;;;;;;;21.47;10.73;;;0.60;99.90;;;;;;4916546;29;20209;-72
2022/03/06 03:04:48;;;;;;;23.10;9.30;;;0.70;99.90;;;;;;4916309;29;20233;-73
2022/03/06 03:07:14;;;;;;;25.10;10.57;;;0.70;99.90;;;;;;4916506;29;20225;-72
2022/03/06 03:09:41;;;;;;;22.60;9.80;;;0.70;99.90;;;;;;4916471;29;20210;-73
2022/03/06 03:12:09;;;;;;;26.10;9.87;;;0.70;99.90;;;;;;4916852;29;20206;-74
2022/03/06 03:14:37;;;;;;;28.33;10.57;;;0.70;99.90;;;;;;4919906;29;20236;-73
2022/03/06 03:17:05;;;;;;;19.70;9.77;;;0.80;99.90;;;;;;4919828;29;20692;-74
2022/03/06 03:19:32;;;;;;;23.57;9.20;;;0.70;99.90;;;;;;4919798;29;20246;-78
2022/03/06 03:21:59;;;;;;;23.03;9.93;;;0.80;99.90;;;;;;4919863;29;20216;-77
2022/03/06 03:24:26;;;;;;;26.27;10.10;;;0.80;99.90;;;;;;4919609;29;20232;-74
2022/03/06 03:26:53;;;;;;;23.60;8.90;;;0.80;99.90;;;;;;4919473;29;20205;-75
2022/03/06 03:29:20;;;;;;;24.07;11.37;;;0.80;99.90;;;;;;4919565;29;20214;-74
2022/03/06 03:31:49;;;;;;;26.07;10.50;;;0.90;99.90;;;;;;4919716;29;20237;-74
2022/03/06 03:34:16;;;;;;;29.00;10.10;;;1.10;99.90;;;;;;4922742;29;20229;-76
2022/03/06 03:36:43;;;;;;;32.33;10.40;;;1.00;99.90;;;;;;4919409;29;20209;-74
2022/03/06 03:39:10;;;;;;;35.87;11.27;;;1.00;99.90;;;;;;4919346;29;20241;-75
2022/03/06 03:41:37;;;;;;;28.40;11.43;;;0.90;99.90;;;;;;4919655;29;20209;-73
2022/03/06 03:44:04;;;;;;;23.13;10.07;;;0.90;99.90;;;;;;4918914;29;20225;-74
2022/03/06 03:46:31;;;;;;;29.43;11.10;;;1.00;99.90;;;;;;4919254;29;20239;-72
2022/03/06 03:48:59;;;;;;;22.17;9.30;;;1.00;99.90;;;;;;4919166;29;20217;-78
2022/03/06 03:51:26;;;;;;;30.40;10.60;;;1.00;99.90;;;;;;4919017;29;20225;-73
2022/03/06 03:53:52;;;;;;;23.77;10.83;;;1.10;99.90;;;;;;4934826;29;20221;-78
2022/03/06 03:56:21;;;;;;;27.90;11.50;;;1.00;99.90;;;;;;4937987;29;20209;-75
2022/03/06 03:58:48;;;;;;;22.10;9.50;;;1.20;99.90;;;;;;4938056;29;20241;-73
2022/03/06 04:01:15;;;;;;;27.63;10.60;;;1.40;99.90;;;;;;4937969;29;20911;-75
2022/03/06 04:03:42;;;;;;;28.37;11.23;;;1.40;99.90;;;;;;4937834;29;20233;-73
2022/03/06 04:06:10;;;;;;;29.83;10.17;;;1.40;99.90;;;;;;4937898;29;20205;-78
2022/03/06 04:08:38;;;;;;;27.90;11.37;;;1.40;99.90;;;;;;4937948;29;20221;-74
2022/03/06 04:11:05;;;;;;;29.93;11.17;;;1.30;99.90;;;;;;4920657;29;20212;-76
2022/03/06 04:13:32;;;;;;;29.23;10.67;;;1.30;99.90;;;;;;4918778;29;20573;-74
2022/03/06 04:15:59;;;;;;;25.83;10.53;;;1.10;99.90;;;;;;4918914;29;20212;-73
2022/03/06 04:18:26;;;;;;;24.90;10.80;;;1.20;99.90;;;;;;4918793;29;20239;-74
2022/03/06 04:20:53;;;;;;;24.30;10.87;;;1.10;99.90;;;;;;4919193;29;20217;-73
2022/03/06 04:23:21;;;;;;;24.73;10.43;;;1.00;99.90;;;;;;4918361;29;20217;-75
2022/03/06 04:25:47;;;;;;;26.00;9.50;;;1.00;99.90;;;;;;4918900;29;20208;-76
2022/03/06 04:28:14;;;;;;;18.80;10.50;;;1.00;99.90;;;;;;4918249;29;20205;-73
2022/03/06 04:30:41;;;;;;;23.13;10.00;;;0.90;99.90;;;;;;4918365;29;20224;-74
2022/03/06 04:33:08;;;;;;;19.50;9.87;;;0.90;99.90;;;;;;4918389;29;20209;-75
2022/03/06 04:35:35;;;;;;;23.17;9.80;;;0.80;99.90;;;;;;4918811;29;20316;-75
2022/03/06 04:38:01;;;;;;;21.93;10.03;;;0.90;99.90;;;;;;4918222;29;20214;-75
2022/03/06 04:40:29;;;;;;;26.73;9.40;;;1.00;99.90;;;;;;4917802;29;20593;-73
2022/03/06 04:42:56;;;;;;;29.17;11.00;;;1.00;99.90;;;;;;4918077;29;20209;-73
2022/03/06 04:45:24;;;;;;;18.57;8.43;;;1.10;99.90;;;;;;4917975;29;20238;-73
2022/03/06 04:47:51;;;;;;;24.03;9.87;;;1.00;99.90;;;;;;4918057;29;20224;-73
2022/03/06 04:50:18;;;;;;;20.53;9.07;;;0.90;99.90;;;;;;4918209;29;20711;-73
2022/03/06 04:52:44;;;;;;;21.37;8.20;;;1.00;99.90;;;;;;4921477;29;20210;-74
2022/03/06 04:55:11;;;;;;;23.00;8.73;;;1.00;99.90;;;;;;4921398;29;20233;-74
2022/03/06 04:57:40;;;;;;;25.67;10.53;;;0.90;99.90;;;;;;4917695;29;20210;-72
2022/03/06 05:00:09;;;;;;;21.17;7.93;;;0.90;99.90;;;;;;4917215;29;20245;-72
2022/03/06 05:02:35;;;;;;;21.73;8.73;;;0.90;99.90;;;;;;4917981;29;20580;-74
2022/03/06 05:05:02;;;;;;;19.87;8.53;;;1.10;99.90;;;;;;4917809;29;20230;-73
2022/03/06 05:07:29;;;;;;;18.67;8.83;;;1.30;99.90;;;;;;4917917;29;20220;-74
2022/03/06 05:09:56;;;;;;;28.13;9.67;;;1.40;99.90;;;;;;4917748;29;20213;-72
2022/03/06 05:12:23;;;;;;;27.40;10.20;;;1.50;99.90;;;;;;4917640;29;20221;-72
2022/03/06 05:14:51;;;;;;;25.70;8.70;;;1.50;99.90;;;;;;4917533;29;20233;-74
2022/03/06 05:17:19;;;;;;;19.20;9.07;;;1.40;99.90;;;;;;4917794;29;20222;-72
2022/03/06 05:19:45;;;;;;;22.53;8.50;;;1.50;99.90;;;;;;4917267;29;20772;-74
2022/03/06 05:22:12;;;;;;;22.10;9.33;;;1.50;99.90;;;;;;4917780;29;20221;-79
2022/03/06 05:24:39;;;;;;;21.97;9.07;;;1.40;99.90;;;;;;4917520;29;20289;-73
2022/03/06 05:27:06;;;;;;;24.20;9.23;;;1.30;99.90;;;;;;4917739;29;20232;-75
2022/03/06 05:29:32;;;;;;;24.13;8.93;;;1.30;99.90;;;;;;4917385;29;20216;-73
2022/03/06 05:32:01;;;;;;;24.63;9.73;;;1.30;99.90;;;;;;4917638;29;20581;-72
2022/03/06 05:34:27;;;;;;;19.03;9.03;;;1.30;99.90;;;;;;4916710;29;20253;-73
2022/03/06 05:36:54;;;;;;;22.93;8.43;;;1.20;99.90;;;;;;4917488;29;20226;-73
2022/03/06 05:39:21;;;;;;;17.30;8.63;;;1.00;99.90;;;;;;4917342;29;20252;-73
2022/03/06 05:41:48;;;;;;;21.80;9.13;;;1.00;99.90;;;;;;4917360;29;20233;-75
2022/03/06 05:44:15;;;;;;;25.03;10.40;;;0.80;99.90;;;;;;4917616;29;20312;-73
2022/03/06 05:46:42;;;;;;;18.97;8.70;;;1.00;99.90;;;;;;4917266;29;20213;-73
2022/03/06 05:49:13;;;;;;;23.43;8.80;;;0.90;99.90;;;;;;4916897;29;20225;-73
2022/03/06 05:51:41;;;;;;;26.30;9.13;;;0.80;99.90;;;;;;4917228;29;20264;-73
2022/03/06 05:54:08;;;;;;;21.53;8.67;;;0.90;99.90;;;;;;4917326;29;20229;-75
2022/03/06 05:56:35;;;;;;;22.40;9.67;;;0.80;99.90;;;;;;4917129;29;20216;-73
2022/03/06 05:59:03;;;;;;;25.47;9.00;;;0.60;99.90;;;;;;4916669;29;20218;-73
2022/03/06 06:01:30;;;;;;;28.67;9.07;;;0.60;99.90;;;;;;4916703;29;20210;-74
2022/03/06 06:03:57;;;;;;;17.57;7.83;;;0.60;99.90;;;;;;4916755;29;20234;-74
2022/03/06 06:06:26;;;;;;;24.20;8.23;;;0.60;99.90;;;;;;4917214;29;20213;-75
2022/03/06 06:08:53;;;;;;;21.53;8.57;;;0.50;99.90;;;;;;4916746;29;20217;-73
2022/03/06 06:11:20;;;;;;;20.63;9.37;;;0.50;99.90;;;;;;4917068;29;20661;-76
2022/03/06 06:13:47;;;;;;;19.17;7.63;;;0.50;99.90;;;;;;4916722;29;20233;-74
2022/03/06 06:16:15;;;;;;;21.47;8.90;;;0.60;99.90;;;;;;4916112;29;20209;-74
2022/03/06 06:18:41;;;;;;;24.17;8.37;;;0.60;99.90;;;;;;4916310;29;20594;-72
2022/03/06 06:21:10;;;;;;;19.73;8.77;;;0.50;99.90;;;;;;4916653;29;20248;-79
2022/03/06 06:23:38;;;;;;;19.57;7.77;;;0.60;99.90;;;;;;4917124;29;20236;-76
2022/03/06 06:26:05;;;;;;;19.80;8.70;;;0.60;99.90;;;;;;4916827;29;20218;-76
2022/03/06 06:28:32;;;;;;;19.33;7.93;;;0.70;99.90;;;;;;4919928;29;20202;-75
2022/03/06 06:30:59;;;;;;;18.37;8.27;;;0.70;99.90;;;;;;4916868;29;20229;-73
2022/03/06 06:33:26;;;;;;;17.27;6.80;;;0.70;99.90;;;;;;4916411;29;20217;-73
2022/03/06 06:35:52;;;;;;;19.60;7.83;;;0.70;99.90;;;;;;4916670;29;20224;-80
2022/03/06 06:38:20;;;;;;;18.30;8.33;;;0.60;99.90;;;;;;4916977;29;20209;-73
2022/03/06 06:40:49;;;;;;;16.37;8.33;;;0.60;99.90;;;;;;4916414;29;20731;-73
2022/03/06 06:43:15;;;;;;;14.37;6.77;;;0.60;99.90;;;;;;4916442;29;20202;-75
2022/03/06 06:45:42;;;;;;;22.70;8.27;;;0.70;99.90;;;;;;4916796;29;20212;-72
2022/03/06 06:48:09;;;;;;;22.93;7.93;;;0.70;99.90;;;;;;4920308;29;20214;-74
2022/03/06 06:50:36;;;;;;;21.17;8.07;;;0.70;99.90;;;;;;4920588;29;20205;-73
2022/03/06 06:53:03;;;;;;;20.33;8.10;;;1.00;99.90;;;;;;4929246;29;20209;-79
2022/03/06 06:55:30;;;;;;;20.90;8.50;;;1.10;99.90;;;;;;4939587;29;20229;-75
2022/03/06 06:57:59;;;;;;;16.30;7.23;;;1.40;99.90;;;;;;4939474;29;20205;-73
2022/03/06 07:00:25;;;;;;;18.67;8.03;;;1.80;99.90;;;;;;4939154;29;20271;-73
2022/03/06 07:02:52;;;;;;;22.13;8.17;;;2.10;99.90;;;;;;4920370;29;20206;-74
2022/03/06 07:05:19;;;;;;;15.83;7.87;;;2.40;99.90;;;;;;4919683;29;20237;-73
2022/03/06 07:07:46;;;;;;;20.27;8.67;;;2.80;99.90;;;;;;4920218;29;20210;-72
2022/03/06 07:10:12;;;;;;;16.03;7.17;;;3.20;99.90;;;;;;4919965;29;20221;-73
2022/03/06 07:12:43;;;;;;;17.07;7.47;;;3.60;99.90;;;;;;4920246;29;20209;-73
2022/03/06 07:15:13;;;;;;;17.77;6.67;;;3.90;99.90;;;;;;4919894;29;20233;-73
2022/03/06 07:17:40;;;;;;;13.60;6.07;;;4.30;99.90;;;;;;4919941;29;20212;-73
2022/03/06 07:20:08;;;;;;;13.67;7.07;;;4.50;99.90;;;;;;4919482;29;20237;-73
2022/03/06 07:22:35;;;;;;;16.63;6.20;;;4.60;99.90;;;;;;4919797;29;20213;-73
2022/03/06 07:25:02;;;;;;;17.07;6.90;;;4.80;99.90;;;;;;4919501;29;20229;-73
2022/03/06 07:27:29;;;;;;;17.43;6.73;;;4.80;99.90;;;;;;4922612;29;20221;-73
2022/03/06 07:29:56;;;;;;;19.70;7.43;;;5.30;99.90;;;;;;4919166;29;20220;-73
2022/03/06 07:32:25;;;;;;;15.50;7.20;;;5.80;99.90;;;;;;4919224;29;20665;-72
2022/03/06 07:34:52;;;;;;;14.97;6.63;;;5.80;99.90;;;;;;4919187;29;20240;-73
2022/03/06 07:37:19;;;;;;;17.10;7.40;;;5.80;99.90;;;;;;4919364;29;20213;-73
2022/03/06 07:39:45;;;;;;;13.83;6.33;;;5.70;99.90;;;;;;4919348;29;20241;-72
2022/03/06 07:42:12;;;;;;;15.17;6.47;;;6.20;99.90;;;;;;4918738;29;20209;-72
2022/03/06 07:44:39;;;;;;;18.13;7.70;;;6.50;99.90;;;;;;4918760;29;20236;-75
2022/03/06 07:47:07;;;;;;;15.97;7.50;;;6.60;99.90;;;;;;4918991;29;20210;-72
2022/03/06 07:49:35;;;;;;;17.87;8.20;;;6.40;99.90;;;;;;4919271;29;20210;-74
2022/03/06 07:52:02;;;;;;;15.90;7.20;;;6.50;99.90;;;;;;4919240;29;20210;-72
2022/03/06 07:54:28;;;;;;;16.57;6.40;;;6.00;99.90;;;;;;4919272;29;20236;-73
2022/03/06 07:56:55;;;;;;;17.03;6.87;;;5.80;99.90;;;;;;4918836;29;20213;-74
2022/03/06 07:59:25;;;;;;;16.33;6.40;;;5.70;99.90;;;;;;4918211;29;20202;-74
2022/03/06 08:01:52;;;;;;;14.20;5.83;;;5.50;99.90;;;;;;4919348;29;20224;-77
2022/03/06 08:04:19;;;;;;;14.93;7.27;;;5.70;99.90;;;;;;4918561;29;20229;-74
2022/03/06 08:06:47;;;;;;;14.33;6.57;;;6.00;99.90;;;;;;4918834;29;20221;-73
2022/03/06 08:09:14;;;;;;;14.87;6.93;;;6.10;99.90;;;;;;4919078;29;20210;-73
2022/03/06 08:11:41;;;;;;;14.37;6.83;;;5.80;99.90;;;;;;4918906;29;20213;-76
2022/03/06 08:14:08;;;;;;;14.30;6.00;;;6.50;99.90;;;;;;4918544;29;20933;-74
2022/03/06 08:16:35;;;;;;;15.07;6.57;;;7.00;99.90;;;;;;4918817;29;20239;-72
2022/03/06 08:19:01;;;;;;;12.73;5.97;;;7.20;99.90;;;;;;4918594;29;20294;-72
2022/03/06 08:21:28;;;;;;;14.63;6.80;;;6.20;99.90;;;;;;4918128;29;20233;-74
2022/03/06 08:23:57;;;;;;;16.97;6.60;;;5.90;99.90;;;;;;4918486;29;20229;-73
2022/03/06 08:26:24;;;;;;;16.40;7.00;;;6.00;99.90;;;;;;4918576;29;20213;-72
2022/03/06 08:28:51;;;;;;;13.87;6.17;;;5.80;99.90;;;;;;4918551;29;20677;-71
2022/03/06 08:31:18;;;;;;;13.67;6.23;;;5.70;99.90;;;;;;4918535;29;20217;-71
2022/03/06 08:33:45;;;;;;;15.60;7.03;;;5.70;99.90;;;;;;4917900;29;20236;-70
2022/03/06 08:36:12;;;;;;;13.50;6.23;;;5.00;99.90;;;;;;4917953;29;20656;-71
2022/03/06 08:38:39;;;;;;;15.17;6.23;;;4.80;99.90;;;;;;4917945;29;20232;-71
2022/03/06 08:41:07;;;;;;;15.10;6.60;;;4.70;99.90;;;;;;4923516;29;20244;-71
2022/03/06 08:43:34;;;;;;;14.30;6.07;;;4.90;99.90;;;;;;4936649;29;20205;-70
2022/03/06 08:46:03;;;;;;;15.37;6.60;;;5.50;99.90;;;;;;4937185;29;20219;-72
2022/03/06 08:48:30;;;;;;;14.83;6.83;;;5.90;99.90;;;;;;4930196;29;20206;-72
2022/03/06 08:50:57;;;;;;;15.67;6.50;;;5.70;99.90;;;;;;4924215;29;20272;-71
2022/03/06 08:53:23;;;;;;;14.47;6.23;;;5.60;99.90;;;;;;4935815;29;20219;-70
2022/03/06 08:55:50;;;;;;;14.77;6.90;;;5.70;99.90;;;;;;4935619;29;20573;-71
2022/03/06 08:58:18;;;;;;;15.47;7.50;;;5.50;99.90;;;;;;4936347;29;20212;-71
2022/03/06 09:00:45;;;;;;;19.53;6.23;;;5.30;99.90;;;;;;4936282;29;20270;-74
2022/03/06 09:03:12;;;;;;;16.30;6.17;;;5.50;99.90;;;;;;4935803;29;20208;-71
2022/03/06 09:05:40;;;;;;;15.63;7.20;;;5.70;99.90;;;;;;4935904;29;20229;-74
2022/03/06 09:08:07;;;;;;;12.23;6.57;;;5.80;99.90;;;;;;4936566;29;20309;-70
2022/03/06 09:10:35;;;;;;;16.87;7.37;;;5.80;99.90;;;;;;4936722;29;20209;-71
2022/03/06 09:13:01;;;;;;;15.53;6.60;;;6.20;99.90;;;;;;4925749;29;20247;-71
2022/03/06 09:15:30;;;;;;;15.33;5.97;;;6.60;99.90;;;;;;4930205;29;20231;-74
2022/03/06 09:17:57;;;;;;;14.43;6.17;;;6.60;99.90;;;;;;4936170;29;20220;-71
2022/03/06 09:20:25;;;;;;;13.27;5.97;;;6.50;99.90;;;;;;4936276;29;20700;-73
2022/03/06 09:22:52;;;;;;;13.53;5.80;;;6.40;99.90;;;;;;4935735;29;20216;-72
2022/03/06 09:25:19;;;;;;;12.83;6.03;;;6.20;99.90;;;;;;4935629;29;20723;-73
2022/03/06 09:27:46;;;;;;;13.40;6.47;;;5.80;99.90;;;;;;4936155;29;20688;-73
2022/03/06 09:30:13;;;;;;;19.40;7.13;;;5.20;99.90;;;;;;4935794;29;20210;-71
2022/03/06 09:32:42;;;;;;;12.50;6.30;;;5.10;99.90;;;;;;4935595;29;20219;-71
2022/03/06 09:35:10;;;;;;;17.33;7.27;;;5.00;99.90;;;;;;4935761;29;20232;-72
2022/03/06 09:37:37;;;;;;;19.23;7.30;;;4.80;99.90;;;;;;4935882;29;20223;-71
2022/03/06 09:40:05;;;;;;;14.67;6.87;;;4.60;99.90;;;;;;4935358;29;20197;-70
2022/03/06 09:42:32;;;;;;;17.07;6.60;;;4.50;99.90;;;;;;4935313;29;20568;-70
2022/03/06 09:45:04;;;;;;;15.97;6.70;;;4.60;99.90;;;;;;4933573;29;20221;-72
2022/03/06 09:47:31;;;;;;;16.20;6.47;;;4.70;99.90;;;;;;4931781;29;20209;-71
2022/03/06 09:50:01;;;;;;;16.90;6.37;;;4.80;99.90;;;;;;4934289;29;20217;-71
2022/03/06 09:52:28;;;;;;;12.93;6.13;;;4.60;99.90;;;;;;4935208;29;20211;-72
2022/03/06 09:54:55;;;;;;;13.10;7.03;;;4.70;99.90;;;;;;4934968;29;20232;-71
2022/03/06 09:57:22;;;;;;;15.67;7.57;;;4.90;99.90;;;;;;4935394;29;20656;-71
2022/03/06 09:59:50;;;;;;;13.93;6.47;;;5.10;99.90;;;;;;4935564;29;20219;-71
2022/03/06 10:02:17;;;;;;;14.27;6.77;;;5.00;99.90;;;;;;4935458;29;20691;-72
2022/03/06 10:04:46;;;;;;;18.40;6.83;;;5.30;99.90;;;;;;4931279;29;20228;-71
2022/03/06 10:07:15;;;;;;;13.03;6.30;;;5.40;99.90;;;;;;4934476;29;20822;-71
2022/03/06 10:09:45;;;;;;;13.20;6.33;;;5.40;99.90;;;;;;4935706;29;20211;-71
2022/03/06 10:12:22;;;;;;;14.37;6.30;;;5.40;99.90;;;;;;4935529;29;20276;-72
2022/03/06 10:14:50;;;;;;;14.07;7.03;;;5.10;99.90;;;;;;4935642;29;20268;-72
2022/03/06 10:17:19;;;;;;;14.40;6.70;;;5.20;99.90;;;;;;4935769;29;20220;-72
2022/03/06 10:19:51;;;;;;;13.67;6.70;;;4.90;99.90;;;;;;4935824;29;20219;-75
2022/03/06 10:22:20;;;;;;;15.40;6.80;;;5.20;99.90;;;;;;4917251;29;20244;-72
2022/03/06 10:24:48;;;;;;;15.87;6.67;;;5.20;99.90;;;;;;4916552;29;20236;-71
2022/03/06 10:27:15;;;;;;;11.90;6.20;;;5.10;99.90;;;;;;4916596;29;20219;-71
2022/03/06 10:29:42;;;;;;;15.70;6.77;;;5.30;99.90;;;;;;4916767;29;20235;-72
2022/03/06 10:32:09;;;;;;;14.30;6.70;;;5.30;99.90;;;;;;4916364;29;20216;-71
2022/03/06 10:34:37;;;;;;;11.93;6.27;;;5.30;99.90;;;;;;4916563;29;20232;-71
2022/03/06 10:37:04;;;;;;;15.93;6.97;;;5.40;99.90;;;;;;4916831;29;20201;-72
2022/03/06 10:39:44;;;;;;;15.07;7.07;;;5.40;99.90;;;;;;4916651;29;20216;-71
2022/03/06 10:42:11;;;;;;;16.43;7.10;;;5.40;99.90;;;;;;4916511;29;20241;-71
2022/03/06 10:44:46;;;;;;;13.50;6.20;;;5.40;99.90;;;;;;4925487;29;20228;-71
2022/03/06 10:47:13;;;;;;;16.17;7.03;;;5.70;99.90;;;;;;4935191;29;20212;-70
2022/03/06 10:49:40;;;;;;;15.67;6.50;;;5.90;99.90;;;;;;4934851;29;20660;-71
2022/03/06 10:52:15;;;;;;;11.50;6.13;;;5.80;99.90;;;;;;4931498;29;20212;-71
2022/03/06 10:54:53;;;;;;;14.27;6.13;;;5.80;99.90;;;;;;4922381;29;20216;-71
2022/03/06 10:57:21;;;;;;;16.83;7.20;;;6.10;99.90;;;;;;4935303;29;20207;-71
2022/03/06 10:59:49;;;;;;;13.73;6.73;;;5.80;99.90;;;;;;4935234;29;20673;-72
2022/03/06 11:02:17;;;;;;;11.20;5.73;;;5.80;99.90;;;;;;4933011;29;20236;-71
2022/03/06 11:04:46;;;;;;;13.30;6.23;;;5.60;99.90;;;;;;4924380;29;20221;-71
2022/03/06 11:07:13;;;;;;;13.47;5.73;;;5.70;99.90;;;;;;4934243;29;20213;-72
2022/03/06 11:09:40;;;;;;;11.60;5.73;;;5.60;99.90;;;;;;4934959;29;20205;-71
2022/03/06 11:12:10;;;;;;;12.77;6.20;;;5.70;99.90;;;;;;4933890;29;20209;-72
2022/03/06 11:14:36;;;;;;;13.03;5.90;;;5.70;99.90;;;;;;4933913;29;20232;-72
2022/03/06 11:17:04;;;;;;;13.10;6.10;;;5.80;99.90;;;;;;4934413;29;20267;-73
2022/03/06 11:19:33;;;;;;;17.47;5.63;;;6.00;99.90;;;;;;4933904;29;20680;-73
2022/03/06 11:22:08;;;;;;;12.37;6.03;;;6.00;99.90;;;;;;4928104;29;20237;-71
2022/03/06 11:24:37;;;;;;;12.37;5.70;;;6.20;99.90;;;;;;4915393;29;20228;-72
2022/03/06 11:27:35;;;;;;;14.20;7.03;;;6.50;99.90;;;;;;4922676;29;20201;-71
2022/03/06 11:30:08;;;;;;;19.30;6.20;;;6.60;99.90;;;;;;4914875;29;20218;-70
2022/03/06 11:32:37;;;;;;;14.30;6.10;;;6.60;99.90;;;;;;4914973;29;20304;-70
2022/03/06 11:35:07;;;;;;;13.57;6.33;;;6.30;99.90;;;;;;4919004;29;20727;-70
2022/03/06 11:37:55;;;;;;;14.27;6.00;;;6.20;99.90;;;;;;4918829;29;20213;-71
2022/03/06 11:40:44;;;;;;;11.53;5.63;;;6.50;99.90;;;;;;4924494;29;20205;-72
2022/03/06 11:43:30;;;;;;;13.57;5.73;;;6.60;99.90;;;;;;4935313;29;20554;-72
2022/03/06 11:46:07;;;;;;;11.47;5.70;;;6.80;99.90;;;;;;4937442;29;20587;-71
2022/03/06 11:49:10;;;;;;;12.40;5.50;;;6.90;99.90;;;;;;4937435;29;20201;-71
2022/03/06 11:51:45;;;;;;;12.00;5.03;;;7.00;99.90;;;;;;4938021;29;20216;-72
2022/03/06 11:54:15;;;;;;;12.80;6.30;;;6.70;99.90;;;;;;4937714;29;20239;-72
2022/03/06 11:56:54;;;;;;;12.00;5.63;;;6.50;99.90;;;;;;4934365;29;20569;-72
2022/03/06 11:59:32;;;;;;;14.07;5.23;;;6.70;99.90;;;;;;4937602;29;20215;-71
2022/03/06 12:02:01;;;;;;;10.27;5.17;;;7.00;99.90;;;;;;4937683;29;20323;-72
2022/03/06 12:04:31;;;;;;;14.60;6.30;;;7.20;99.70;;;;;;4934751;29;20228;-71
2022/03/06 12:06:59;;;;;;;11.17;5.50;;;7.20;99.80;;;;;;4937168;29;20208;-71
2022/03/06 12:09:28;;;;;;;13.83;5.57;;;7.10;99.60;;;;;;4936217;29;20204;-71
2022/03/06 12:11:57;;;;;;;11.40;5.20;;;7.00;99.30;;;;;;4936978;29;20205;-71
2022/03/06 12:14:25;;;;;;;10.00;5.27;;;7.00;99.70;;;;;;4936398;29;20252;-71
2022/03/06 12:17:22;;;;;;;11.17;5.90;;;7.30;99.60;;;;;;4934401;29;20217;-70
2022/03/06 12:20:12;;;;;;;9.97;5.30;;;6.90;99.10;;;;;;4936368;29;20238;-71
2022/03/06 12:22:46;;;;;;;9.30;4.83;;;6.80;99.70;;;;;;4918892;29;20237;-71
2022/03/06 12:25:24;;;;;;;10.10;5.10;;;6.80;99.90;;;;;;4932240;29;20227;-71
2022/03/06 12:28:16;;;;;;;10.97;4.87;;;6.80;99.90;;;;;;4937215;29;20232;-72
2022/03/06 12:30:43;;;;;;;7.37;4.50;;;7.20;98.60;;;;;;4937136;29;20661;-71
2022/03/06 12:33:35;;;;;;;8.20;4.33;;;7.40;98.20;;;;;;4936618;29;20217;-72
2022/03/06 12:36:14;;;;;;;11.50;4.90;;;7.50;98.20;;;;;;4935952;29;20205;-71
2022/03/06 12:38:41;;;;;;;11.23;5.10;;;7.50;98.60;;;;;;4920596;29;20210;-72
2022/03/06 12:41:08;;;;;;;10.53;5.23;;;7.50;98.10;;;;;;4916758;29;20377;-72
2022/03/06 12:43:43;;;;;;;10.23;5.10;;;7.30;98.40;;;;;;4916946;29;20221;-74
2022/03/06 12:46:10;;;;;;;8.87;4.60;;;7.10;98.80;;;;;;4917504;29;20206;-72
2022/03/06 12:48:38;;;;;;;8.50;4.53;;;7.20;98.90;;;;;;4916902;29;20221;-72
2022/03/06 12:51:05;;;;;;;9.10;4.27;;;7.40;98.20;;;;;;4917439;29;20225;-70